Denny Creek, Washington
Current Conditions -  °F | °C
As of 5:13 PM on Sunday 21 Dec 2014 (Local Time) from KRNT Reporting Station
Scattered Clouds Scattered Clouds  
Wind Chill: 53°   Ceiling: Unl
Heat Index: 53°   Visibility: 10mi
Dew Point: 45°   Wind: 9mph
Humidity: 74%   Direction: 170°S
Pressure: 30.03"   Gusts: NA
Location:  47.4594°N, 121.612°W
Report Text: KRNT 220113Z 17008KT 10SM SCT024 12/07 A3003 RMK AO2 T01170072 $
Loading
Personal Weather Stations






























Interactive Weather Map New forecast layout! Learn more

10-Day Weather Forecast

Advertisements
Track Severe Weather on mobile